RYR1969 EPGD-LIPH
Flight info
| Callsign | RYR1969 |
|---|---|
| Flight time | 1h 39m |
| Altitude | 38000 |
| Route | DEXIR T671 VEKON L730 LUXAL P31 MAREM DCT YUJKI DCT PEMEL P31 DOSEL M736 MANAL DCT LUXEK Y108 ALESE |
| Aircraft | B738/M-SDE2E3FGHIRWXY/LB1 |
Departure
| Time | 2026-04-16 11:45 |
|---|---|
| Airport | Gdańsk Lech Wałęsa Airport (EPGD) |
Arrival
| Time | 2026-04-16 13:24 |
|---|---|
| Airport | Treviso Airport (LIPH) |
| Time | Latitude | Longitude | Altitude | Speed | Heading |
|---|---|---|---|---|---|
| 2026-04-16 11:28 | 54.38201 | 18.46265 | 452 ft | 0 kts | 22° |
| 2026-04-16 11:34 | 54.38186 | 18.46254 | 452 ft | 3 kts | 23° |
| 2026-04-16 11:34 | 54.38170 | 18.46242 | 451 ft | 1 kts | 33° |
| 2026-04-16 11:34 | 54.38164 | 18.46232 | 451 ft | 1 kts | 86° |
| 2026-04-16 11:35 | 54.38164 | 18.46217 | 448 ft | 1 kts | 105° |
| 2026-04-16 11:35 | 54.38167 | 18.46204 | 449 ft | 1 kts | 111° |
| 2026-04-16 11:37 | 54.38166 | 18.46208 | 448 ft | 1 kts | 111° |
| 2026-04-16 11:37 | 54.38158 | 18.46241 | 451 ft | 5 kts | 111° |
| 2026-04-16 11:37 | 54.38143 | 18.46312 | 452 ft | 8 kts | 110° |
| 2026-04-16 11:38 | 54.38119 | 18.46415 | 451 ft | 11 kts | 111° |
| 2026-04-16 11:38 | 54.38090 | 18.46530 | 451 ft | 10 kts | 115° |
| 2026-04-16 11:38 | 54.38058 | 18.46612 | 452 ft | 8 kts | 153° |
| 2026-04-16 11:38 | 54.38007 | 18.46596 | 452 ft | 8 kts | 204° |
| 2026-04-16 11:39 | 54.37957 | 18.46590 | 452 ft | 7 kts | 168° |
| 2026-04-16 11:39 | 54.37928 | 18.46665 | 452 ft | 10 kts | 108° |
| 2026-04-16 11:39 | 54.37897 | 18.46794 | 452 ft | 14 kts | 113° |
| 2026-04-16 11:39 | 54.37851 | 18.46971 | 453 ft | 18 kts | 114° |
| 2026-04-16 11:40 | 54.37795 | 18.47193 | 453 ft | 22 kts | 113° |
| 2026-04-16 11:40 | 54.37731 | 18.47449 | 451 ft | 25 kts | 113° |
| 2026-04-16 11:40 | 54.37662 | 18.47727 | 457 ft | 26 kts | 113° |
| 2026-04-16 11:40 | 54.37595 | 18.48003 | 460 ft | 24 kts | 112° |
| 2026-04-16 11:41 | 54.37527 | 18.48279 | 464 ft | 25 kts | 113° |
| 2026-04-16 11:41 | 54.37462 | 18.48544 | 472 ft | 23 kts | 113° |
| 2026-04-16 11:41 | 54.37400 | 18.48795 | 475 ft | 22 kts | 112° |
| 2026-04-16 11:41 | 54.37343 | 18.49028 | 482 ft | 19 kts | 112° |
| 2026-04-16 11:42 | 54.37287 | 18.49151 | 486 ft | 13 kts | 165° |
| 2026-04-16 11:42 | 54.37233 | 18.49132 | 489 ft | 3 kts | 202° |
| 2026-04-16 11:42 | 54.37214 | 18.49119 | 490 ft | 3 kts | 202° |
| 2026-04-16 11:42 | 54.37195 | 18.49105 | 488 ft | 3 kts | 202° |
| 2026-04-16 11:43 | 54.37177 | 18.49092 | 491 ft | 3 kts | 202° |
| 2026-04-16 11:43 | 54.37161 | 18.49076 | 484 ft | 3 kts | 225° |
| 2026-04-16 11:43 | 54.37161 | 18.49031 | 487 ft | 5 kts | 290° |
| 2026-04-16 11:43 | 54.37165 | 18.49013 | 488 ft | 2 kts | 290° |
| 2026-04-16 11:44 | 54.37175 | 18.48967 | 481 ft | 7 kts | 292° |
| 2026-04-16 11:44 | 54.37253 | 18.48652 | 476 ft | 63 kts | 293° |
| 2026-04-16 11:44 | 54.37521 | 18.47573 | 458 ft | 131 kts | 293° |
| 2026-04-16 11:44 | 54.37948 | 18.45855 | 567 ft | 171 kts | 297° |
| 2026-04-16 11:45 | 54.38430 | 18.44038 | 1374 ft | 167 kts | 295° |
| 2026-04-16 11:45 | 54.38898 | 18.42251 | 2153 ft | 167 kts | 293° |
| 2026-04-16 11:45 | 54.39338 | 18.40421 | 2937 ft | 164 kts | 290° |
| 2026-04-16 11:45 | 54.39758 | 18.38639 | 3683 ft | 158 kts | 290° |
| 2026-04-16 11:46 | 54.40168 | 18.36935 | 4425 ft | 150 kts | 291° |
| 2026-04-16 11:46 | 54.40559 | 18.35335 | 5138 ft | 144 kts | 291° |
| 2026-04-16 11:46 | 54.40977 | 18.33631 | 5415 ft | 164 kts | 291° |
| 2026-04-16 11:46 | 54.41448 | 18.31719 | 5744 ft | 184 kts | 291° |
| 2026-04-16 11:47 | 54.41967 | 18.29617 | 6026 ft | 199 kts | 292° |
| 2026-04-16 11:47 | 54.42523 | 18.27375 | 6406 ft | 208 kts | 292° |
| 2026-04-16 11:47 | 54.43097 | 18.25039 | 6842 ft | 218 kts | 289° |
| 2026-04-16 11:47 | 54.43238 | 18.22424 | 7308 ft | 228 kts | 259° |
| 2026-04-16 11:48 | 54.42569 | 18.19880 | 7744 ft | 244 kts | 234° |
| 2026-04-16 11:48 | 54.41185 | 18.18041 | 8196 ft | 263 kts | 209° |
| 2026-04-16 11:48 | 54.39479 | 18.16788 | 8630 ft | 276 kts | 206° |
| 2026-04-16 11:48 | 54.37664 | 18.15513 | 9103 ft | 288 kts | 206° |
| 2026-04-16 11:49 | 54.35833 | 18.13994 | 9553 ft | 295 kts | 221° |
| 2026-04-16 11:49 | 54.34564 | 18.11300 | 10046 ft | 294 kts | 248° |
| 2026-04-16 11:49 | 54.33806 | 18.07997 | 10492 ft | 302 kts | 254° |
| 2026-04-16 11:49 | 54.33116 | 18.04529 | 10929 ft | 312 kts | 255° |
| 2026-04-16 11:50 | 54.32410 | 18.00946 | 11381 ft | 322 kts | 255° |
| 2026-04-16 11:50 | 54.31703 | 17.97416 | 11981 ft | 326 kts | 255° |
| 2026-04-16 11:50 | 54.30953 | 17.93734 | 12681 ft | 329 kts | 255° |
| 2026-04-16 11:50 | 54.30187 | 17.90023 | 13381 ft | 332 kts | 255° |
| 2026-04-16 11:51 | 54.29408 | 17.86276 | 14091 ft | 336 kts | 255° |
| 2026-04-16 11:51 | 54.28639 | 17.82536 | 14737 ft | 338 kts | 256° |
| 2026-04-16 11:51 | 54.27959 | 17.78670 | 15336 ft | 341 kts | 258° |
| 2026-04-16 11:51 | 54.27323 | 17.74738 | 15991 ft | 344 kts | 259° |
| 2026-04-16 11:52 | 54.26690 | 17.70784 | 16699 ft | 346 kts | 259° |
| 2026-04-16 11:52 | 54.26047 | 17.66809 | 17390 ft | 348 kts | 259° |
| 2026-04-16 11:52 | 54.25392 | 17.62811 | 18045 ft | 351 kts | 259° |
| 2026-04-16 11:52 | 54.24723 | 17.58774 | 18669 ft | 354 kts | 259° |
| 2026-04-16 11:53 | 54.24046 | 17.54704 | 19212 ft | 357 kts | 259° |
| 2026-04-16 11:53 | 54.23357 | 17.50591 | 19696 ft | 362 kts | 258° |
| 2026-04-16 11:53 | 54.22659 | 17.46434 | 20211 ft | 365 kts | 258° |
| 2026-04-16 11:53 | 54.21809 | 17.42302 | 20746 ft | 372 kts | 251° |
| 2026-04-16 11:54 | 54.20683 | 17.38293 | 21277 ft | 377 kts | 248° |
| 2026-04-16 11:54 | 54.19462 | 17.34297 | 21784 ft | 381 kts | 246° |
| 2026-04-16 11:54 | 54.18223 | 17.30275 | 22277 ft | 384 kts | 247° |
| 2026-04-16 11:54 | 54.16993 | 17.26212 | 22784 ft | 387 kts | 247° |
| 2026-04-16 11:55 | 54.15771 | 17.22110 | 23268 ft | 390 kts | 247° |
| 2026-04-16 11:55 | 54.14546 | 17.17956 | 23747 ft | 393 kts | 247° |
| 2026-04-16 11:55 | 54.13317 | 17.13766 | 24149 ft | 396 kts | 247° |
| 2026-04-16 11:55 | 54.12099 | 17.09611 | 24570 ft | 398 kts | 247° |
| 2026-04-16 11:56 | 54.10859 | 17.05393 | 24989 ft | 399 kts | 246° |
| 2026-04-16 11:56 | 54.09590 | 17.01161 | 25382 ft | 403 kts | 244° |
| 2026-04-16 11:56 | 54.08166 | 16.97168 | 25765 ft | 407 kts | 240° |
| 2026-04-16 11:56 | 54.06607 | 16.93124 | 26127 ft | 409 kts | 239° |
| 2026-04-16 11:57 | 54.05024 | 16.89088 | 26579 ft | 409 kts | 239° |
| 2026-04-16 11:57 | 54.03443 | 16.85044 | 26963 ft | 411 kts | 239° |
| 2026-04-16 11:57 | 54.01862 | 16.80966 | 27285 ft | 414 kts | 240° |
| 2026-04-16 11:57 | 54.00297 | 16.76899 | 27609 ft | 417 kts | 240° |
| 2026-04-16 11:58 | 53.98690 | 16.72713 | 27980 ft | 419 kts | 240° |
| 2026-04-16 11:58 | 53.97117 | 16.68611 | 28331 ft | 421 kts | 240° |
| 2026-04-16 11:58 | 53.95515 | 16.64444 | 28664 ft | 423 kts | 239° |
| 2026-04-16 11:58 | 53.93899 | 16.60254 | 28979 ft | 425 kts | 239° |
| 2026-04-16 11:59 | 53.92076 | 16.56266 | 29270 ft | 431 kts | 230° |
| 2026-04-16 11:59 | 53.89878 | 16.52758 | 29583 ft | 436 kts | 222° |
| 2026-04-16 11:59 | 53.87358 | 16.49810 | 29886 ft | 442 kts | 214° |
| 2026-04-16 11:59 | 53.84702 | 16.47147 | 30184 ft | 444 kts | 214° |
| 2026-04-16 12:00 | 53.82030 | 16.44520 | 30439 ft | 445 kts | 214° |
| 2026-04-16 12:00 | 53.79342 | 16.41883 | 30736 ft | 445 kts | 214° |
| 2026-04-16 12:00 | 53.76669 | 16.39251 | 31123 ft | 443 kts | 214° |
| 2026-04-16 12:00 | 53.74055 | 16.36662 | 31497 ft | 441 kts | 214° |
| 2026-04-16 12:01 | 53.71410 | 16.34032 | 31795 ft | 441 kts | 214° |
| 2026-04-16 12:01 | 53.68765 | 16.31395 | 32065 ft | 441 kts | 214° |
| 2026-04-16 12:01 | 53.66120 | 16.28755 | 32384 ft | 441 kts | 214° |
| 2026-04-16 12:02 | 53.60855 | 16.23512 | 33087 ft | 437 kts | 215° |
| 2026-04-16 12:02 | 53.58238 | 16.20913 | 33414 ft | 437 kts | 215° |
| 2026-04-16 12:02 | 53.55618 | 16.18313 | 33679 ft | 437 kts | 214° |
| 2026-04-16 12:02 | 53.52996 | 16.15716 | 33961 ft | 437 kts | 214° |
| 2026-04-16 12:03 | 53.50382 | 16.13130 | 34259 ft | 436 kts | 214° |
| 2026-04-16 12:03 | 53.47768 | 16.10549 | 34492 ft | 435 kts | 214° |
| 2026-04-16 12:03 | 53.45154 | 16.07972 | 34681 ft | 436 kts | 214° |
| 2026-04-16 12:03 | 53.42529 | 16.05387 | 34871 ft | 437 kts | 214° |
| 2026-04-16 12:04 | 53.39915 | 16.02817 | 35106 ft | 435 kts | 214° |
| 2026-04-16 12:04 | 53.37336 | 16.00286 | 35387 ft | 433 kts | 214° |
| 2026-04-16 12:04 | 53.34800 | 15.97800 | 35561 ft | 434 kts | 214° |
| 2026-04-16 12:04 | 53.32183 | 15.95237 | 35730 ft | 436 kts | 214° |
| 2026-04-16 12:05 | 53.29561 | 15.92673 | 35980 ft | 436 kts | 214° |
| 2026-04-16 12:05 | 53.26938 | 15.90114 | 36234 ft | 435 kts | 214° |
| 2026-04-16 12:05 | 53.24318 | 15.87560 | 36420 ft | 435 kts | 214° |
| 2026-04-16 12:05 | 53.21733 | 15.85043 | 36573 ft | 436 kts | 213° |
| 2026-04-16 12:06 | 53.19112 | 15.82495 | 36745 ft | 436 kts | 213° |
| 2026-04-16 12:06 | 53.16459 | 15.79920 | 36930 ft | 436 kts | 213° |
| 2026-04-16 12:06 | 53.13868 | 15.77409 | 37110 ft | 436 kts | 213° |
| 2026-04-16 12:06 | 53.11242 | 15.74867 | 37253 ft | 436 kts | 213° |
| 2026-04-16 12:07 | 53.08616 | 15.72326 | 37404 ft | 437 kts | 213° |
| 2026-04-16 12:07 | 53.05978 | 15.69779 | 37577 ft | 437 kts | 213° |
| 2026-04-16 12:07 | 53.03345 | 15.67242 | 37739 ft | 437 kts | 213° |
| 2026-04-16 12:07 | 53.00716 | 15.64712 | 37885 ft | 437 kts | 213° |
| 2026-04-16 12:08 | 52.98988 | 15.63051 | 37986 ft | 437 kts | 213° |
| 2026-04-16 12:08 | 52.95496 | 15.59698 | 38156 ft | 438 kts | 213° |
| 2026-04-16 12:08 | 52.90197 | 15.54619 | 38181 ft | 441 kts | 213° |
| 2026-04-16 12:09 | 52.84895 | 15.49552 | 38180 ft | 439 kts | 213° |
| 2026-04-16 12:09 | 52.80495 | 15.45357 | 38180 ft | 438 kts | 213° |
| 2026-04-16 12:10 | 52.75215 | 15.40337 | 38177 ft | 436 kts | 213° |
| 2026-04-16 12:10 | 52.69988 | 15.35379 | 38172 ft | 435 kts | 213° |
| 2026-04-16 12:11 | 52.64729 | 15.30406 | 38182 ft | 435 kts | 213° |
| 2026-04-16 12:11 | 52.59474 | 15.25449 | 38172 ft | 436 kts | 213° |
| 2026-04-16 12:12 | 52.54209 | 15.20497 | 38181 ft | 436 kts | 213° |
| 2026-04-16 12:12 | 52.48930 | 15.15546 | 38178 ft | 438 kts | 213° |
| 2026-04-16 12:13 | 52.43661 | 15.10618 | 38180 ft | 439 kts | 213° |
| 2026-04-16 12:13 | 52.38344 | 15.05659 | 38178 ft | 440 kts | 213° |
| 2026-04-16 12:14 | 52.33003 | 15.00692 | 38178 ft | 441 kts | 213° |
| 2026-04-16 12:14 | 52.27736 | 14.95807 | 38169 ft | 442 kts | 213° |
| 2026-04-16 12:15 | 52.22384 | 14.90857 | 38172 ft | 442 kts | 213° |
| 2026-04-16 12:15 | 52.17066 | 14.85952 | 38174 ft | 441 kts | 213° |
| 2026-04-16 12:16 | 52.11718 | 14.81032 | 38171 ft | 441 kts | 213° |
| 2026-04-16 12:16 | 52.06382 | 14.76136 | 38156 ft | 440 kts | 213° |
| 2026-04-16 12:17 | 52.01081 | 14.71219 | 38165 ft | 438 kts | 213° |
| 2026-04-16 12:17 | 51.95826 | 14.66294 | 38171 ft | 436 kts | 213° |
| 2026-04-16 12:18 | 51.90561 | 14.61378 | 38173 ft | 435 kts | 213° |
| 2026-04-16 12:18 | 51.85312 | 14.56501 | 38157 ft | 434 kts | 213° |
| 2026-04-16 12:19 | 51.80108 | 14.51678 | 38171 ft | 433 kts | 213° |
| 2026-04-16 12:19 | 51.74885 | 14.46850 | 38173 ft | 433 kts | 213° |
| 2026-04-16 12:20 | 51.69656 | 14.42048 | 38175 ft | 432 kts | 213° |
| 2026-04-16 12:20 | 51.64425 | 14.37264 | 38173 ft | 432 kts | 213° |
| 2026-04-16 12:21 | 51.59196 | 14.32490 | 38173 ft | 432 kts | 213° |
| 2026-04-16 12:21 | 51.53971 | 14.27729 | 38176 ft | 432 kts | 213° |
| 2026-04-16 12:22 | 51.48824 | 14.22799 | 38177 ft | 430 kts | 217° |
| 2026-04-16 12:22 | 51.43863 | 14.17420 | 38179 ft | 430 kts | 218° |
| 2026-04-16 12:23 | 51.38865 | 14.12115 | 38175 ft | 431 kts | 214° |
| 2026-04-16 12:23 | 51.33412 | 14.08061 | 38179 ft | 436 kts | 206° |
| 2026-04-16 12:24 | 51.27802 | 14.04360 | 38183 ft | 436 kts | 206° |
| 2026-04-16 12:24 | 51.22199 | 14.00622 | 38186 ft | 436 kts | 207° |
| 2026-04-16 12:25 | 51.16679 | 13.96906 | 38188 ft | 436 kts | 207° |
| 2026-04-16 12:25 | 51.11087 | 13.93141 | 38183 ft | 436 kts | 207° |
| 2026-04-16 12:26 | 51.05526 | 13.89407 | 38197 ft | 436 kts | 207° |
| 2026-04-16 12:26 | 50.99940 | 13.85667 | 38182 ft | 436 kts | 207° |
| 2026-04-16 12:27 | 50.94352 | 13.81937 | 38189 ft | 435 kts | 207° |
| 2026-04-16 12:27 | 50.88947 | 13.77706 | 38191 ft | 432 kts | 212° |
| 2026-04-16 12:28 | 50.83667 | 13.73162 | 38190 ft | 431 kts | 212° |
| 2026-04-16 12:28 | 50.78371 | 13.68668 | 38186 ft | 431 kts | 212° |
| 2026-04-16 12:29 | 50.73091 | 13.64285 | 38175 ft | 432 kts | 208° |
| 2026-04-16 12:29 | 50.67271 | 13.61642 | 38190 ft | 440 kts | 193° |
| 2026-04-16 12:30 | 50.61215 | 13.60210 | 38190 ft | 440 kts | 193° |
| 2026-04-16 12:30 | 50.55163 | 13.58731 | 38189 ft | 440 kts | 193° |
| 2026-04-16 12:31 | 50.49115 | 13.57191 | 38183 ft | 440 kts | 193° |
| 2026-04-16 12:31 | 50.43057 | 13.55658 | 38185 ft | 440 kts | 193° |
| 2026-04-16 12:32 | 50.37025 | 13.54152 | 38190 ft | 441 kts | 193° |
| 2026-04-16 12:32 | 50.30952 | 13.52640 | 38190 ft | 441 kts | 193° |
| 2026-04-16 12:33 | 50.24886 | 13.51132 | 38192 ft | 442 kts | 193° |
| 2026-04-16 12:33 | 50.18804 | 13.49623 | 38192 ft | 443 kts | 193° |
| 2026-04-16 12:34 | 50.12710 | 13.48115 | 38194 ft | 443 kts | 193° |
| 2026-04-16 12:34 | 50.06643 | 13.46617 | 38188 ft | 443 kts | 193° |
| 2026-04-16 12:35 | 50.00544 | 13.45115 | 38186 ft | 443 kts | 193° |
| 2026-04-16 12:35 | 49.94456 | 13.43619 | 38197 ft | 443 kts | 193° |
| 2026-04-16 12:36 | 49.88347 | 13.42122 | 38210 ft | 443 kts | 193° |
| 2026-04-16 12:36 | 49.82296 | 13.40644 | 38210 ft | 442 kts | 193° |
| 2026-04-16 12:37 | 49.76179 | 13.39153 | 38205 ft | 442 kts | 193° |
| 2026-04-16 12:37 | 49.70139 | 13.37684 | 38211 ft | 441 kts | 193° |
| 2026-04-16 12:38 | 49.64060 | 13.36209 | 38192 ft | 441 kts | 193° |
| 2026-04-16 12:38 | 49.58001 | 13.34743 | 38211 ft | 440 kts | 193° |
| 2026-04-16 12:39 | 49.51980 | 13.33290 | 38212 ft | 440 kts | 193° |
| 2026-04-16 12:39 | 49.45927 | 13.31832 | 38215 ft | 440 kts | 193° |
| 2026-04-16 12:40 | 49.39878 | 13.30377 | 38204 ft | 439 kts | 193° |
| 2026-04-16 12:40 | 49.33822 | 13.28925 | 38218 ft | 439 kts | 193° |
| 2026-04-16 12:41 | 49.27833 | 13.27492 | 38238 ft | 439 kts | 193° |
| 2026-04-16 12:41 | 49.21994 | 13.25149 | 38232 ft | 430 kts | 209° |
| 2026-04-16 12:42 | 49.16689 | 13.20984 | 38223 ft | 428 kts | 211° |
| 2026-04-16 12:42 | 49.11364 | 13.16881 | 38243 ft | 429 kts | 210° |
| 2026-04-16 12:43 | 49.05992 | 13.12898 | 38255 ft | 429 kts | 210° |
| 2026-04-16 12:43 | 49.00610 | 13.08937 | 38255 ft | 430 kts | 210° |
| 2026-04-16 12:44 | 48.95231 | 13.04972 | 38251 ft | 431 kts | 210° |
| 2026-04-16 12:44 | 48.89856 | 13.01013 | 38263 ft | 432 kts | 210° |
| 2026-04-16 12:45 | 48.84514 | 12.97086 | 38256 ft | 433 kts | 210° |
| 2026-04-16 12:45 | 48.79085 | 12.93104 | 38240 ft | 434 kts | 209° |
| 2026-04-16 12:46 | 48.73695 | 12.88995 | 38244 ft | 431 kts | 216° |
| 2026-04-16 12:46 | 48.69118 | 12.83284 | 38268 ft | 425 kts | 226° |
| 2026-04-16 12:47 | 48.64806 | 12.77140 | 38254 ft | 425 kts | 226° |
| 2026-04-16 12:47 | 48.60468 | 12.71104 | 38256 ft | 425 kts | 225° |
| 2026-04-16 12:48 | 48.56112 | 12.65058 | 38251 ft | 425 kts | 226° |
| 2026-04-16 12:48 | 48.51764 | 12.59007 | 38254 ft | 424 kts | 226° |
| 2026-04-16 12:49 | 48.47421 | 12.52976 | 38254 ft | 424 kts | 225° |
| 2026-04-16 12:49 | 48.43102 | 12.47011 | 38261 ft | 424 kts | 225° |
| 2026-04-16 12:50 | 48.38606 | 12.41214 | 38255 ft | 425 kts | 223° |
| 2026-04-16 12:50 | 48.34063 | 12.35511 | 38260 ft | 425 kts | 223° |
| 2026-04-16 12:51 | 48.29532 | 12.29796 | 38266 ft | 424 kts | 223° |
| 2026-04-16 12:51 | 48.25045 | 12.24115 | 38258 ft | 424 kts | 223° |
| 2026-04-16 12:52 | 48.20523 | 12.18394 | 38262 ft | 424 kts | 223° |
| 2026-04-16 12:52 | 48.16006 | 12.12692 | 38266 ft | 424 kts | 223° |
| 2026-04-16 12:53 | 48.11517 | 12.07039 | 38258 ft | 424 kts | 223° |
| 2026-04-16 12:53 | 48.06998 | 12.01363 | 38262 ft | 424 kts | 223° |
| 2026-04-16 12:54 | 48.02551 | 11.95789 | 38229 ft | 425 kts | 223° |
| 2026-04-16 12:54 | 47.98023 | 11.90127 | 38240 ft | 425 kts | 223° |
| 2026-04-16 12:55 | 47.93488 | 11.84468 | 38248 ft | 425 kts | 223° |
| 2026-04-16 12:55 | 47.88813 | 11.79012 | 38240 ft | 430 kts | 213° |
| 2026-04-16 12:56 | 47.84416 | 11.75503 | 38244 ft | 432 kts | 211° |
| 2026-04-16 12:56 | 47.78206 | 11.70671 | 38232 ft | 433 kts | 211° |
| 2026-04-16 12:57 | 47.73748 | 11.67137 | 38234 ft | 433 kts | 212° |
| 2026-04-16 12:57 | 47.68410 | 11.63032 | 38220 ft | 437 kts | 205° |
| 2026-04-16 12:58 | 47.62456 | 11.60896 | 38211 ft | 446 kts | 189° |
| 2026-04-16 12:58 | 47.56266 | 11.60107 | 38151 ft | 449 kts | 188° |
| 2026-04-16 12:59 | 47.53116 | 11.59721 | 37588 ft | 455 kts | 188° |
| 2026-04-16 12:59 | 47.49967 | 11.59318 | 37055 ft | 453 kts | 188° |
| 2026-04-16 12:59 | 47.46836 | 11.58896 | 36530 ft | 450 kts | 188° |
| 2026-04-16 13:00 | 47.40590 | 11.58030 | 35339 ft | 450 kts | 188° |
| 2026-04-16 13:00 | 47.37470 | 11.57598 | 34740 ft | 451 kts | 188° |
| 2026-04-16 13:00 | 47.34386 | 11.57176 | 34117 ft | 451 kts | 188° |
| 2026-04-16 13:00 | 47.31249 | 11.56738 | 33406 ft | 452 kts | 189° |
| 2026-04-16 13:01 | 47.28110 | 11.56300 | 32759 ft | 451 kts | 188° |
| 2026-04-16 13:01 | 47.24982 | 11.55869 | 32085 ft | 451 kts | 189° |
| 2026-04-16 13:01 | 47.21878 | 11.55441 | 31681 ft | 445 kts | 188° |
| 2026-04-16 13:01 | 47.18796 | 11.55010 | 31175 ft | 442 kts | 188° |
| 2026-04-16 13:02 | 47.15744 | 11.54577 | 30716 ft | 438 kts | 188° |
| 2026-04-16 13:02 | 47.12760 | 11.54152 | 30280 ft | 434 kts | 188° |
| 2026-04-16 13:02 | 47.09753 | 11.53726 | 29752 ft | 431 kts | 188° |
| 2026-04-16 13:02 | 47.06784 | 11.53306 | 29288 ft | 425 kts | 188° |
| 2026-04-16 13:03 | 47.03839 | 11.52890 | 28819 ft | 425 kts | 188° |
| 2026-04-16 13:03 | 47.00884 | 11.52466 | 28348 ft | 429 kts | 188° |
| 2026-04-16 13:03 | 46.97926 | 11.51998 | 27879 ft | 426 kts | 189° |
| 2026-04-16 13:03 | 46.94996 | 11.51509 | 27390 ft | 422 kts | 189° |
| 2026-04-16 13:04 | 46.92097 | 11.51018 | 26984 ft | 417 kts | 189° |
| 2026-04-16 13:04 | 46.89220 | 11.50534 | 26515 ft | 414 kts | 189° |
| 2026-04-16 13:04 | 46.86399 | 11.50062 | 26058 ft | 412 kts | 189° |
| 2026-04-16 13:04 | 46.83555 | 11.49591 | 25617 ft | 409 kts | 189° |
| 2026-04-16 13:05 | 46.80729 | 11.49125 | 25156 ft | 408 kts | 189° |
| 2026-04-16 13:05 | 46.77917 | 11.48663 | 24717 ft | 406 kts | 188° |
| 2026-04-16 13:05 | 46.75118 | 11.48203 | 24278 ft | 404 kts | 188° |
| 2026-04-16 13:05 | 46.72325 | 11.47745 | 23834 ft | 403 kts | 188° |
| 2026-04-16 13:06 | 46.69539 | 11.47289 | 23306 ft | 403 kts | 188° |
| 2026-04-16 13:06 | 46.66750 | 11.46831 | 22821 ft | 401 kts | 188° |
| 2026-04-16 13:06 | 46.63986 | 11.46377 | 22377 ft | 397 kts | 188° |
| 2026-04-16 13:06 | 46.61249 | 11.45927 | 21923 ft | 394 kts | 188° |
| 2026-04-16 13:07 | 46.58537 | 11.45480 | 21478 ft | 391 kts | 188° |
| 2026-04-16 13:07 | 46.55846 | 11.45037 | 21053 ft | 388 kts | 188° |
| 2026-04-16 13:07 | 46.53167 | 11.44597 | 20616 ft | 385 kts | 188° |
| 2026-04-16 13:07 | 46.50514 | 11.44161 | 20198 ft | 382 kts | 188° |
| 2026-04-16 13:08 | 46.47912 | 11.43734 | 19787 ft | 380 kts | 188° |
| 2026-04-16 13:08 | 46.45291 | 11.43307 | 19360 ft | 378 kts | 188° |
| 2026-04-16 13:08 | 46.42684 | 11.42883 | 18956 ft | 376 kts | 188° |
| 2026-04-16 13:08 | 46.40090 | 11.42456 | 18579 ft | 375 kts | 188° |
| 2026-04-16 13:09 | 46.37500 | 11.42031 | 18108 ft | 374 kts | 188° |
| 2026-04-16 13:09 | 46.34924 | 11.41609 | 17653 ft | 371 kts | 187° |
| 2026-04-16 13:09 | 46.32363 | 11.41192 | 17231 ft | 369 kts | 187° |
| 2026-04-16 13:09 | 46.29817 | 11.40778 | 16810 ft | 366 kts | 187° |
| 2026-04-16 13:10 | 46.27292 | 11.40560 | 16383 ft | 364 kts | 175° |
| 2026-04-16 13:10 | 46.24843 | 11.41419 | 16047 ft | 360 kts | 163° |
| 2026-04-16 13:10 | 46.22453 | 11.42503 | 15631 ft | 359 kts | 162° |
| 2026-04-16 13:10 | 46.20089 | 11.43582 | 15229 ft | 357 kts | 163° |
| 2026-04-16 13:11 | 46.17712 | 11.44656 | 14821 ft | 356 kts | 163° |
| 2026-04-16 13:11 | 46.15349 | 11.45712 | 14416 ft | 355 kts | 163° |
| 2026-04-16 13:11 | 46.12995 | 11.46754 | 14032 ft | 353 kts | 163° |
| 2026-04-16 13:11 | 46.10653 | 11.47785 | 13589 ft | 351 kts | 163° |
| 2026-04-16 13:12 | 46.08351 | 11.48793 | 13167 ft | 349 kts | 163° |
| 2026-04-16 13:12 | 46.06025 | 11.49812 | 12764 ft | 347 kts | 163° |
| 2026-04-16 13:12 | 46.03720 | 11.50818 | 12371 ft | 344 kts | 163° |
| 2026-04-16 13:12 | 46.01435 | 11.51814 | 11969 ft | 343 kts | 163° |
| 2026-04-16 13:13 | 45.99170 | 11.52800 | 11565 ft | 341 kts | 163° |
| 2026-04-16 13:13 | 45.96905 | 11.53786 | 11175 ft | 338 kts | 163° |
| 2026-04-16 13:13 | 45.94663 | 11.54762 | 10797 ft | 336 kts | 163° |
| 2026-04-16 13:13 | 45.92447 | 11.55725 | 10590 ft | 328 kts | 163° |
| 2026-04-16 13:14 | 45.90287 | 11.56663 | 10410 ft | 319 kts | 163° |
| 2026-04-16 13:14 | 45.88220 | 11.57559 | 10295 ft | 309 kts | 163° |
| 2026-04-16 13:14 | 45.86177 | 11.58427 | 10128 ft | 302 kts | 163° |
| 2026-04-16 13:14 | 45.84151 | 11.59262 | 9773 ft | 302 kts | 163° |
| 2026-04-16 13:15 | 45.82133 | 11.60089 | 9462 ft | 300 kts | 164° |
| 2026-04-16 13:15 | 45.80128 | 11.60910 | 9133 ft | 297 kts | 164° |
| 2026-04-16 13:15 | 45.78147 | 11.61725 | 8839 ft | 295 kts | 164° |
| 2026-04-16 13:15 | 45.76177 | 11.62535 | 8533 ft | 293 kts | 163° |
| 2026-04-16 13:16 | 45.74246 | 11.63328 | 8243 ft | 291 kts | 164° |
| 2026-04-16 13:16 | 45.72304 | 11.64126 | 7962 ft | 289 kts | 164° |
| 2026-04-16 13:16 | 45.70371 | 11.64919 | 7653 ft | 288 kts | 164° |
| 2026-04-16 13:16 | 45.68449 | 11.65706 | 7361 ft | 286 kts | 164° |
| 2026-04-16 13:17 | 45.66533 | 11.66489 | 7060 ft | 285 kts | 164° |
| 2026-04-16 13:17 | 45.64656 | 11.67257 | 6762 ft | 284 kts | 164° |
| 2026-04-16 13:17 | 45.62862 | 11.68411 | 6444 ft | 283 kts | 144° |
| 2026-04-16 13:17 | 45.61325 | 11.70138 | 6159 ft | 280 kts | 142° |
| 2026-04-16 13:18 | 45.59788 | 11.71854 | 5848 ft | 279 kts | 142° |
| 2026-04-16 13:18 | 45.58249 | 11.73534 | 5554 ft | 278 kts | 143° |
| 2026-04-16 13:18 | 45.56712 | 11.75197 | 5342 ft | 273 kts | 143° |
| 2026-04-16 13:18 | 45.55256 | 11.76879 | 5200 ft | 266 kts | 131° |
| 2026-04-16 13:19 | 45.54461 | 11.79145 | 5024 ft | 258 kts | 97° |
| 2026-04-16 13:19 | 45.54629 | 11.81673 | 4812 ft | 253 kts | 72° |
| 2026-04-16 13:19 | 45.55244 | 11.84009 | 4562 ft | 251 kts | 67° |
| 2026-04-16 13:19 | 45.55903 | 11.86267 | 4301 ft | 249 kts | 68° |
| 2026-04-16 13:20 | 45.56559 | 11.88545 | 4052 ft | 248 kts | 68° |
| 2026-04-16 13:20 | 45.57204 | 11.90823 | 3802 ft | 246 kts | 68° |
| 2026-04-16 13:20 | 45.57836 | 11.93087 | 3554 ft | 245 kts | 68° |
| 2026-04-16 13:20 | 45.58485 | 11.95285 | 3353 ft | 238 kts | 68° |
| 2026-04-16 13:21 | 45.59083 | 11.97457 | 3049 ft | 231 kts | 70° |
| 2026-04-16 13:21 | 45.59639 | 11.99581 | 2746 ft | 225 kts | 70° |
| 2026-04-16 13:21 | 45.60181 | 12.01656 | 2445 ft | 220 kts | 70° |
| 2026-04-16 13:21 | 45.60711 | 12.03676 | 2139 ft | 214 kts | 70° |
| 2026-04-16 13:22 | 45.61214 | 12.05593 | 1863 ft | 203 kts | 70° |
| 2026-04-16 13:22 | 45.61696 | 12.07428 | 1597 ft | 193 kts | 70° |
| 2026-04-16 13:22 | 45.62154 | 12.09172 | 1354 ft | 182 kts | 70° |
| 2026-04-16 13:22 | 45.62585 | 12.10812 | 1141 ft | 170 kts | 70° |
| 2026-04-16 13:23 | 45.62979 | 12.12308 | 948 ft | 152 kts | 70° |
| 2026-04-16 13:23 | 45.63347 | 12.13708 | 728 ft | 148 kts | 70° |
| 2026-04-16 13:23 | 45.63708 | 12.15078 | 535 ft | 148 kts | 70° |
| 2026-04-16 13:23 | 45.64070 | 12.16445 | 358 ft | 144 kts | 70° |
| 2026-04-16 13:24 | 45.64416 | 12.17761 | 150 ft | 144 kts | 70° |
| 2026-04-16 13:24 | 45.64766 | 12.19073 | 61 ft | 119 kts | 69° |
| 2026-04-16 13:24 | 45.64980 | 12.19890 | 57 ft | 58 kts | 69° |
| 2026-04-16 13:24 | 45.65075 | 12.20164 | 57 ft | 18 kts | 47° |
| 2026-04-16 13:25 | 45.65180 | 12.20251 | 57 ft | 17 kts | 27° |
| 2026-04-16 13:25 | 45.65262 | 12.20310 | 55 ft | 12 kts | 27° |
| 2026-04-16 13:25 | 45.65311 | 12.20403 | 58 ft | 12 kts | 68° |
| 2026-04-16 13:25 | 45.65337 | 12.20494 | 56 ft | 7 kts | 53° |
| 2026-04-16 13:26 | 45.65383 | 12.20490 | 59 ft | 6 kts | 337° |
| 2026-04-16 13:26 | 45.65395 | 12.20483 | 60 ft | 0 kts | 338° |